createdAt,value
2018-12-19T00:00:56.913Z,10.27
2018-12-19T00:03:29.944Z,8.73
2018-12-19T00:06:02.992Z,8.80
2018-12-19T00:08:34.116Z,9.80
2018-12-19T00:11:05.299Z,8.63
2018-12-19T00:13:36.267Z,9.77
2018-12-19T00:16:07.351Z,8.10
2018-12-19T00:18:38.324Z,11.17
2018-12-19T00:21:09.340Z,8.97
2018-12-19T00:23:40.403Z,9.37
2018-12-19T00:26:11.481Z,9.80
2018-12-19T00:28:44.501Z,8.80
2018-12-19T00:31:17.547Z,9.87
2018-12-19T00:33:50.494Z,9.30
2018-12-19T00:36:22.542Z,9.23
2018-12-19T00:38:53.616Z,10.13
2018-12-19T00:41:24.742Z,12.37
2018-12-19T00:43:55.813Z,11.27
2018-12-19T00:46:26.912Z,8.57
2018-12-19T00:48:58.075Z,10.80
2018-12-19T00:51:29.202Z,10.10
2018-12-19T00:54:00.279Z,9.23
2018-12-19T00:56:31.316Z,10.20
2018-12-19T00:59:02.427Z,9.63
2018-12-19T01:01:33.530Z,10.97
2018-12-19T01:04:04.615Z,9.17
2018-12-19T01:06:35.590Z,9.17
2018-12-19T01:09:08.333Z,9.97
2018-12-19T01:11:41.296Z,10.57
2018-12-19T01:14:12.448Z,10.80
2018-12-19T01:16:43.555Z,10.30
2018-12-19T01:19:14.639Z,11.87
2018-12-19T01:21:45.622Z,9.90
2018-12-19T01:24:17.006Z,12.63
2018-12-19T01:26:48.015Z,10.47
2018-12-19T01:29:19.248Z,9.03
2018-12-19T01:31:50.351Z,10.07
2018-12-19T01:34:21.423Z,11.87
2018-12-19T01:36:52.552Z,10.50
2018-12-19T01:39:23.632Z,9.80
2018-12-19T01:41:54.635Z,10.53
2018-12-19T01:44:25.742Z,9.93
2018-12-19T01:47:01.923Z,9.93
2018-12-19T01:49:38.349Z,10.87
2018-12-19T01:52:14.692Z,12.30
2018-12-19T01:54:51.075Z,9.57
2018-12-19T01:57:27.279Z,10.43
2018-12-19T02:00:03.469Z,9.53
2018-12-19T02:02:39.876Z,10.13
2018-12-19T02:05:17.160Z,11.33
2018-12-19T02:07:53.380Z,8.93
2018-12-19T02:10:29.516Z,10.53
2018-12-19T02:13:05.823Z,11.87
2018-12-19T02:15:43.113Z,10.33
2018-12-19T02:18:19.455Z,9.87
2018-12-19T02:20:55.780Z,10.70
2018-12-19T02:23:32.168Z,10.20
2018-12-19T02:26:08.534Z,12.07
2018-12-19T02:28:46.049Z,11.37
2018-12-19T02:31:22.369Z,10.43
2018-12-19T02:33:58.918Z,10.13
2018-12-19T02:36:35.476Z,9.03
2018-12-19T02:39:11.692Z,11.03
2018-12-19T02:41:48.019Z,10.57
2018-12-19T02:44:24.213Z,9.50
2018-12-19T02:47:00.398Z,8.83
2018-12-19T02:49:36.740Z,8.87
2018-12-19T02:52:13.070Z,8.77
2018-12-19T02:54:49.205Z,11.53
2018-12-19T02:57:25.527Z,13.13
2018-12-19T03:00:01.683Z,10.10
2018-12-19T03:02:40.075Z,8.40
2018-12-19T03:05:16.234Z,10.17
2018-12-19T03:07:52.490Z,8.63
2018-12-19T03:10:28.707Z,11.83
2018-12-19T03:13:05.096Z,9.60
2018-12-19T03:15:41.255Z,9.73
2018-12-19T03:18:17.424Z,10.43
2018-12-19T03:20:53.638Z,11.03
2018-12-19T03:23:30.031Z,10.77
2018-12-19T03:26:06.469Z,9.93
2018-12-19T03:28:42.717Z,9.77
2018-12-19T03:31:18.939Z,9.10
2018-12-19T03:33:55.301Z,7.73
2018-12-19T03:36:31.603Z,8.83
2018-12-19T03:39:08.709Z,8.73
2018-12-19T03:41:44.974Z,9.53
2018-12-19T03:44:21.120Z,9.63
2018-12-19T03:46:57.484Z,9.50
2018-12-19T03:49:33.734Z,8.40
2018-12-19T03:52:10.003Z,8.00
2018-12-19T03:54:46.352Z,9.00
2018-12-19T03:57:22.934Z,8.23
2018-12-19T03:59:59.192Z,9.10
2018-12-19T04:02:35.427Z,9.50
2018-12-19T04:05:11.676Z,9.77
2018-12-19T04:07:47.832Z,10.07
2018-12-19T04:10:24.054Z,9.47
2018-12-19T04:13:00.228Z,10.07
2018-12-19T04:15:31.304Z,10.57
2018-12-19T04:18:02.310Z,11.57
2018-12-19T04:20:33.410Z,10.80
2018-12-19T04:23:04.486Z,12.40
2018-12-19T04:25:35.489Z,10.73
2018-12-19T04:28:06.578Z,10.27
2018-12-19T04:30:40.027Z,10.10
2018-12-19T04:33:11.108Z,9.70
2018-12-19T04:35:42.348Z,12.23
2018-12-19T04:38:14.041Z,10.10
2018-12-19T04:40:45.163Z,10.33
2018-12-19T04:43:17.091Z,10.07
2018-12-19T04:45:48.210Z,10.00
2018-12-19T04:48:19.290Z,10.43
2018-12-19T04:50:50.417Z,12.37
2018-12-19T04:53:21.488Z,9.60
2018-12-19T04:55:52.604Z,10.30
2018-12-19T04:58:23.772Z,9.13
2018-12-19T05:00:54.772Z,10.47
2018-12-19T05:03:25.848Z,8.83
2018-12-19T05:05:56.935Z,9.83
2018-12-19T05:08:28.003Z,9.93
2018-12-19T05:10:59.155Z,9.87
2018-12-19T05:13:30.259Z,8.80
2018-12-19T05:16:01.422Z,12.00
2018-12-19T05:18:32.567Z,8.33
2018-12-19T05:21:03.761Z,10.03
2018-12-19T05:23:34.850Z,11.23
2018-12-19T05:26:05.976Z,10.20
2018-12-19T05:28:37.047Z,10.97
2018-12-19T05:31:08.158Z,10.43
2018-12-19T05:33:39.213Z,8.67
2018-12-19T05:36:10.315Z,9.57
2018-12-19T05:38:41.287Z,10.63
2018-12-19T05:41:12.596Z,13.90
2018-12-19T05:43:43.684Z,10.50
2018-12-19T05:46:14.679Z,10.50
2018-12-19T05:48:45.750Z,12.33
2018-12-19T05:51:16.945Z,11.73
2018-12-19T05:53:48.040Z,12.37
2018-12-19T05:56:19.168Z,10.70
2018-12-19T05:58:50.261Z,13.43
2018-12-19T06:01:22.432Z,11.13
2018-12-19T06:03:57.443Z,11.50
2018-12-19T06:06:28.636Z,10.90
2018-12-19T06:08:59.595Z,11.50
2018-12-19T06:11:30.735Z,11.67
2018-12-19T06:14:01.845Z,12.73
2018-12-19T06:16:33.723Z,11.37
2018-12-19T06:19:04.844Z,13.33
2018-12-19T06:21:36.040Z,12.33
2018-12-19T06:24:07.127Z,11.10
2018-12-19T06:26:38.460Z,13.20
2018-12-19T06:29:09.564Z,12.23
2018-12-19T06:31:40.658Z,11.50
2018-12-19T06:34:11.757Z,11.57
2018-12-19T06:36:42.860Z,10.30
2018-12-19T06:39:14.064Z,10.47
2018-12-19T06:41:45.151Z,10.93
2018-12-19T06:44:16.241Z,11.07
2018-12-19T06:46:47.362Z,11.23
2018-12-19T06:49:19.264Z,14.07
2018-12-19T06:51:50.390Z,13.83
2018-12-19T06:54:21.773Z,13.10
2018-12-19T06:56:52.987Z,11.50
2018-12-19T06:59:24.072Z,11.90
2018-12-19T07:01:55.185Z,12.50
2018-12-19T07:04:26.281Z,14.90
2018-12-19T07:06:57.378Z,9.40
2018-12-19T07:09:28.532Z,9.90
2018-12-19T07:11:59.509Z,14.80
2018-12-19T07:14:30.587Z,11.70
2018-12-19T07:17:01.607Z,10.63
2018-12-19T07:19:32.740Z,14.07
2018-12-19T07:22:03.841Z,16.93
2018-12-19T07:24:34.992Z,16.03
2018-12-19T07:27:06.198Z,14.87
2018-12-19T07:29:37.304Z,13.20
2018-12-19T07:32:08.409Z,13.83
2018-12-19T07:34:44.191Z,13.43
2018-12-19T07:37:12.823Z,11.47
2018-12-19T07:39:43.904Z,11.70
2018-12-19T07:42:15.048Z,12.70
2018-12-19T07:44:46.076Z,11.87
2018-12-19T07:47:17.223Z,11.90
2018-12-19T07:49:48.283Z,10.97
2018-12-19T07:52:19.428Z,10.53
2018-12-19T07:54:51.884Z,12.40
2018-12-19T07:57:22.984Z,11.63
2018-12-19T07:59:54.076Z,11.23
2018-12-19T08:02:25.243Z,11.40
2018-12-19T08:04:56.428Z,9.70
2018-12-19T08:07:28.570Z,10.30
2018-12-19T08:09:59.593Z,10.83
2018-12-19T08:12:36.059Z,10.57
2018-12-19T08:15:03.791Z,11.00
2018-12-19T08:17:34.909Z,10.30
2018-12-19T08:20:06.236Z,12.23
2018-12-19T08:22:37.543Z,11.47
2018-12-19T08:25:08.635Z,11.07
2018-12-19T08:27:40.779Z,11.77
2018-12-19T08:30:11.754Z,10.60
2018-12-19T08:32:42.861Z,10.47
2018-12-19T08:35:13.951Z,11.57
2018-12-19T08:37:45.049Z,9.30
2018-12-19T08:40:16.029Z,10.57
2018-12-19T08:42:47.143Z,12.23
2018-12-19T08:45:18.652Z,13.00
2018-12-19T08:47:49.643Z,13.43
2018-12-19T08:50:20.631Z,14.30
2018-12-19T08:52:52.199Z,11.47
2018-12-19T08:55:23.313Z,11.97
2018-12-19T08:57:54.589Z,12.47
2018-12-19T09:00:25.687Z,13.53
2018-12-19T09:02:56.792Z,12.17
2018-12-19T09:05:27.883Z,13.27
2018-12-19T09:07:59.420Z,14.67
2018-12-19T09:10:30.531Z,14.43
2018-12-19T09:13:01.651Z,14.97
2018-12-19T09:15:38.045Z,11.43
2018-12-19T09:18:09.273Z,15.20
2018-12-19T09:20:40.508Z,13.27
2018-12-19T09:23:11.667Z,16.43
2018-12-19T09:25:42.815Z,14.70
2018-12-19T09:28:13.944Z,12.93
2018-12-19T09:30:44.944Z,13.20
2018-12-19T09:33:16.091Z,13.67
2018-12-19T09:35:47.111Z,14.80
2018-12-19T09:38:18.223Z,14.47
2018-12-19T09:40:49.351Z,14.20
2018-12-19T09:43:20.379Z,16.63
2018-12-19T09:45:51.466Z,16.87
2018-12-19T09:48:22.600Z,17.77
2018-12-19T09:50:53.568Z,14.00
2018-12-19T09:53:24.893Z,17.20
2018-12-19T09:55:56.092Z,14.13
2018-12-19T09:58:27.206Z,16.47
2018-12-19T10:00:58.883Z,16.93
2018-12-19T10:03:31.085Z,17.63
2018-12-19T10:06:03.263Z,14.03
2018-12-19T10:08:34.388Z,20.83
2018-12-19T10:11:05.363Z,16.40
2018-12-19T10:13:36.488Z,14.83
2018-12-19T10:16:07.711Z,15.60
2018-12-19T10:18:38.865Z,15.00
2018-12-19T10:21:09.948Z,16.80
2018-12-19T10:23:41.113Z,15.13
2018-12-19T10:26:14.103Z,16.07
2018-12-19T10:28:45.199Z,14.43
2018-12-19T10:31:16.348Z,11.23
2018-12-19T10:33:47.389Z,11.10
2018-12-19T10:36:22.605Z,10.83
2018-12-19T10:38:53.818Z,11.07
2018-12-19T10:41:25.614Z,15.40
2018-12-19T10:43:57.557Z,14.17
2018-12-19T10:46:28.657Z,12.13
2018-12-19T10:48:59.841Z,14.10
2018-12-19T10:51:30.827Z,13.17
2018-12-19T10:54:01.942Z,12.70
2018-12-19T10:56:33.045Z,13.33
2018-12-19T10:59:04.264Z,13.57
2018-12-19T11:01:35.656Z,15.27
2018-12-19T11:59:31.633Z,8.23
2018-12-19T12:02:08.575Z,7.87
2018-12-19T12:04:45.620Z,7.93
2018-12-19T12:07:19.695Z,10.67
2018-12-19T12:09:54.368Z,8.37
2018-12-19T12:12:25.986Z,11.00
2018-12-19T12:14:57.596Z,8.60
2018-12-19T12:17:35.371Z,9.00
2018-12-19T12:20:08.648Z,12.90
2018-12-19T12:22:41.103Z,15.50
2018-12-19T12:25:12.456Z,10.23
2018-12-19T12:27:43.566Z,8.97
2018-12-19T12:30:14.670Z,8.27
2018-12-19T12:32:45.660Z,7.23
2018-12-19T12:35:16.899Z,6.83
2018-12-19T12:37:48.009Z,5.33
2018-12-19T12:40:19.079Z,8.07
2018-12-19T12:42:50.243Z,8.83
2018-12-19T12:45:21.694Z,12.53
2018-12-19T12:47:52.868Z,12.73
2018-12-19T12:50:23.946Z,7.87
2018-12-19T12:52:56.188Z,6.03
2018-12-19T12:55:27.278Z,5.83
2018-12-19T12:57:58.395Z,6.57
2018-12-19T13:00:29.591Z,6.80
2018-12-19T13:03:00.596Z,4.97
2018-12-19T13:05:31.672Z,4.63
2018-12-19T13:08:02.785Z,7.13
2018-12-19T13:10:36.408Z,8.97
2018-12-19T13:13:07.976Z,6.33
2018-12-19T13:15:44.114Z,8.60
2018-12-19T13:18:15.753Z,7.67
2018-12-19T13:20:46.722Z,7.93
2018-12-19T13:23:17.721Z,9.10
2018-12-19T13:25:48.813Z,8.03
2018-12-19T13:28:19.923Z,4.63
2018-12-19T13:30:50.913Z,6.67
2018-12-19T13:33:22.127Z,9.63
2018-12-19T13:35:53.334Z,8.83
2018-12-19T13:38:24.444Z,6.90
2018-12-19T13:40:55.528Z,8.67
2018-12-19T13:43:26.513Z,7.23
2018-12-19T13:45:57.613Z,10.30
2018-12-19T13:48:28.739Z,11.03
2018-12-19T13:50:59.836Z,33.30
2018-12-19T13:53:30.897Z,35.03
2018-12-19T14:00:47.570Z,22.67
2018-12-19T14:03:18.728Z,25.80
2018-12-19T14:05:49.818Z,24.83
2018-12-19T14:08:20.952Z,19.93
2018-12-19T14:10:52.073Z,17.80
2018-12-19T14:13:23.212Z,15.60
2018-12-19T14:15:54.419Z,15.53
2018-12-19T14:18:25.540Z,12.87
2018-12-19T14:20:56.668Z,11.20
2018-12-19T14:23:27.693Z,8.77
2018-12-19T14:25:58.763Z,9.00
2018-12-19T14:28:29.759Z,7.97
2018-12-19T14:31:00.747Z,7.73
2018-12-19T14:33:31.867Z,6.70
2018-12-19T14:36:02.939Z,4.37
2018-12-19T14:38:34.103Z,14.80
2018-12-19T14:41:05.358Z,14.33
2018-12-19T14:43:36.507Z,16.00
2018-12-19T14:46:09.079Z,13.60
2018-12-19T14:48:40.736Z,9.33
2018-12-19T14:51:12.039Z,14.13
2018-12-19T14:53:43.212Z,18.90
2018-12-19T14:56:14.288Z,16.93
2018-12-19T14:58:46.756Z,14.20
2018-12-19T15:01:17.832Z,7.87
2018-12-19T15:03:49.040Z,4.67
2018-12-19T15:06:20.247Z,6.57
2018-12-19T15:08:51.589Z,6.23
2018-12-19T15:11:22.667Z,5.20
2018-12-19T15:14:00.106Z,6.40
2018-12-19T15:16:31.270Z,6.10
2018-12-19T15:19:02.439Z,7.70
2018-12-19T15:21:33.601Z,6.97
2018-12-19T15:24:04.653Z,6.20
2018-12-19T15:26:35.828Z,6.10
2018-12-19T15:29:06.961Z,5.93
2018-12-19T15:31:38.154Z,4.90
2018-12-19T15:34:09.300Z,6.73
2018-12-19T15:36:40.593Z,5.53
2018-12-19T15:39:11.688Z,5.00
2018-12-19T15:41:44.732Z,4.90
2018-12-19T15:44:15.837Z,6.27
2018-12-19T15:46:47.025Z,4.50
2018-12-19T15:49:18.275Z,4.63
2018-12-19T15:51:49.351Z,4.80
2018-12-19T15:54:20.487Z,4.97
2018-12-19T15:56:51.579Z,4.73
2018-12-19T15:59:22.679Z,5.43
2018-12-19T16:01:53.771Z,6.43
2018-12-19T16:04:24.873Z,5.23
2018-12-19T16:06:56.258Z,6.60
2018-12-19T16:09:27.324Z,6.47
2018-12-19T16:11:58.410Z,6.60
2018-12-19T16:14:29.897Z,5.83
2018-12-19T16:17:00.994Z,5.40
2018-12-19T16:19:32.179Z,5.30
2018-12-19T16:22:03.267Z,5.40
2018-12-19T16:24:34.433Z,5.27
2018-12-19T16:27:05.585Z,6.00
2018-12-19T16:29:36.973Z,6.20
2018-12-19T16:32:08.063Z,6.77
2018-12-19T16:34:39.379Z,6.33
2018-12-19T16:37:10.543Z,6.23
2018-12-19T16:39:42.120Z,5.67
2018-12-19T16:42:13.367Z,5.37
2018-12-19T16:44:44.511Z,5.93
2018-12-19T16:47:16.624Z,4.77
2018-12-19T16:49:48.260Z,4.70
2018-12-19T16:52:20.340Z,5.70
2018-12-19T16:54:51.770Z,6.70
2018-12-19T16:57:22.845Z,6.80
2018-12-19T16:59:53.949Z,5.30
2018-12-19T17:02:24.973Z,6.20
2018-12-19T17:04:56.089Z,5.50
2018-12-19T17:07:27.157Z,5.93
2018-12-19T17:09:58.299Z,8.77
2018-12-19T17:12:29.273Z,5.83
2018-12-19T17:15:00.629Z,11.13
2018-12-19T17:17:32.032Z,6.63
2018-12-19T17:20:03.143Z,6.77
2018-12-19T17:22:34.216Z,6.77
2018-12-19T17:25:05.633Z,15.83
2018-12-19T17:27:36.735Z,46.17
2018-12-19T17:30:07.861Z,32.10
2018-12-19T17:32:40.243Z,34.80
2018-12-19T17:35:11.353Z,33.40
2018-12-19T17:37:42.425Z,27.17
2018-12-19T17:40:13.523Z,12.13
2018-12-19T17:42:44.624Z,8.90
2018-12-19T17:45:15.580Z,7.53
2018-12-19T17:47:46.729Z,9.07
2018-12-19T17:50:17.731Z,6.60
2018-12-19T17:52:48.729Z,6.33
2018-12-19T17:55:19.807Z,7.83
2018-12-19T17:57:50.957Z,9.67
2018-12-19T18:00:22.053Z,6.53
2018-12-19T18:02:53.143Z,7.50
2018-12-19T18:05:24.381Z,7.20
2018-12-19T18:07:55.527Z,7.37
2018-12-19T18:10:26.518Z,7.10
2018-12-19T18:12:57.616Z,6.27
2018-12-19T18:15:28.851Z,7.30
2018-12-19T18:17:59.976Z,10.93
2018-12-19T18:20:31.052Z,6.53
2018-12-19T18:23:02.041Z,6.73
2018-12-19T18:25:33.120Z,7.20
2018-12-19T18:28:04.232Z,7.20
2018-12-19T18:30:35.212Z,6.57
2018-12-19T18:33:06.393Z,6.27
2018-12-19T18:35:37.473Z,7.17
2018-12-19T18:38:08.572Z,7.83
2018-12-19T18:40:39.547Z,13.87
2018-12-19T18:43:13.011Z,13.17
2018-12-19T18:45:43.792Z,12.67
2018-12-19T18:48:14.960Z,12.63
2018-12-19T18:50:46.067Z,15.13
2018-12-19T18:53:17.184Z,15.97
2018-12-19T18:55:48.477Z,12.03
2018-12-19T18:58:19.568Z,13.17
2018-12-19T19:00:50.571Z,15.27
2018-12-19T19:03:21.819Z,15.03
2018-12-19T19:05:52.945Z,15.57
2018-12-19T19:08:24.314Z,15.17
2018-12-19T19:10:55.533Z,12.73
2018-12-19T19:13:26.657Z,13.80
2018-12-19T19:15:57.868Z,13.07
2018-12-19T19:18:29.124Z,14.67
2018-12-19T19:21:01.279Z,13.40
2018-12-19T19:23:32.560Z,18.67
2018-12-19T19:26:03.717Z,21.17
2018-12-19T19:28:34.704Z,20.43
2018-12-19T19:31:05.875Z,18.10
2018-12-19T19:33:37.142Z,20.07
2018-12-19T19:36:08.263Z,19.87
2018-12-19T19:38:39.353Z,17.10
2018-12-19T19:41:10.340Z,19.80
2018-12-19T19:43:41.508Z,19.83
2018-12-19T19:46:12.725Z,15.60
2018-12-19T19:48:43.885Z,12.87
2018-12-19T19:51:17.109Z,13.17
2018-12-19T19:53:48.147Z,17.77
2018-12-19T19:56:19.312Z,21.57
2018-12-19T19:58:50.428Z,17.97
2018-12-19T20:01:21.512Z,16.73
2018-12-19T20:03:53.164Z,16.60
2018-12-19T20:06:24.157Z,15.83
2018-12-19T20:09:00.540Z,15.13
2018-12-19T20:11:38.707Z,11.73
2018-12-19T20:14:15.024Z,11.10
2018-12-19T20:17:03.652Z,8.03
2018-12-19T20:19:34.945Z,8.63
2018-12-19T20:22:07.100Z,12.07
2018-12-19T20:24:38.272Z,9.03
2018-12-19T20:27:09.509Z,9.53
2018-12-19T20:29:40.602Z,8.07
2018-12-19T20:32:12.734Z,8.03
2018-12-19T20:34:43.887Z,5.37
2018-12-19T20:37:14.971Z,6.13
2018-12-19T20:39:46.192Z,8.00
2018-12-19T20:42:17.267Z,6.37
2018-12-19T20:44:48.378Z,4.47
2018-12-19T20:47:19.471Z,5.93
2018-12-19T20:49:50.679Z,5.20
2018-12-19T20:52:21.713Z,5.60
2018-12-19T20:54:52.843Z,5.70
2018-12-19T20:57:24.196Z,7.07
2018-12-19T20:59:55.397Z,9.27
2018-12-19T21:02:26.560Z,6.93
2018-12-19T21:04:57.659Z,8.83
2018-12-19T21:07:28.753Z,9.30
2018-12-19T21:09:59.862Z,7.10
2018-12-19T21:12:30.936Z,7.73
2018-12-19T21:15:02.124Z,6.60
2018-12-19T21:17:38.577Z,6.20
2018-12-19T21:20:09.539Z,6.53
2018-12-19T21:22:40.687Z,7.10
2018-12-19T21:25:11.836Z,6.60
2018-12-19T21:27:42.808Z,7.03
2018-12-19T21:30:14.263Z,6.43
2018-12-19T21:32:45.359Z,6.43
2018-12-19T21:35:16.347Z,6.97
2018-12-19T21:37:47.481Z,8.53
2018-12-19T21:40:18.582Z,8.43
2018-12-19T21:42:49.650Z,10.33
2018-12-19T21:45:20.844Z,8.37
2018-12-19T21:47:51.992Z,10.23
2018-12-19T21:50:23.106Z,8.33
2018-12-19T21:52:54.325Z,7.00
2018-12-19T21:55:25.496Z,6.10
2018-12-19T21:57:56.523Z,6.20
2018-12-19T22:00:34.570Z,6.33
2018-12-19T22:03:07.018Z,5.93
2018-12-19T22:05:40.328Z,6.23
2018-12-19T22:08:11.482Z,7.33
2018-12-19T22:10:42.738Z,6.73
2018-12-19T22:13:13.972Z,5.70
2018-12-19T22:15:45.139Z,5.43
2018-12-19T22:18:22.539Z,5.47
2018-12-19T22:20:53.635Z,5.43
2018-12-19T22:23:24.821Z,4.93
2018-12-19T22:25:55.947Z,4.87
2018-12-19T22:28:27.052Z,4.67
2018-12-19T22:30:58.205Z,4.00
2018-12-19T22:33:29.282Z,4.53
2018-12-19T22:36:00.471Z,4.63
2018-12-19T22:38:31.585Z,4.63
2018-12-19T22:41:02.839Z,5.57
2018-12-19T22:43:33.921Z,6.07
2018-12-19T22:46:05.117Z,5.70
2018-12-19T22:48:36.356Z,7.07
2018-12-19T22:51:07.452Z,5.33
2018-12-19T22:53:38.404Z,5.40
2018-12-19T22:56:09.503Z,6.30
2018-12-19T22:58:40.578Z,6.37
2018-12-19T23:02:21.246Z,6.50
2018-12-19T23:04:52.234Z,7.27
2018-12-19T23:07:23.350Z,6.63
2018-12-19T23:09:54.520Z,5.87
2018-12-19T23:12:25.680Z,5.40
2018-12-19T23:14:56.703Z,5.20
2018-12-19T23:17:38.577Z,5.43
2018-12-19T23:20:15.656Z,4.60
2018-12-19T23:22:52.323Z,4.73
2018-12-19T23:25:28.943Z,4.73
2018-12-19T23:28:02.001Z,7.13
2018-12-19T23:30:34.936Z,5.77
2018-12-19T23:33:06.043Z,4.27
2018-12-19T23:35:37.114Z,4.10
2018-12-19T23:38:08.288Z,5.57
2018-12-19T23:40:39.498Z,4.90
2018-12-19T23:43:10.549Z,7.33
2018-12-19T23:45:41.560Z,5.43
2018-12-19T23:48:12.898Z,5.07
2018-12-19T23:50:44.005Z,5.30
2018-12-19T23:53:15.183Z,5.03
2018-12-19T23:55:46.289Z,4.87
2018-12-19T23:58:17.467Z,6.40
